createdAt,value
2022-10-13T00:01:53.069Z,4.03
2022-10-13T00:04:21.001Z,3.20
2022-10-13T00:09:31.871Z,3.42
2022-10-13T00:12:00.367Z,3.25
2022-10-13T00:14:29.371Z,3.58
2022-10-13T00:16:58.629Z,3.20
2022-10-13T00:19:28.521Z,3.67
2022-10-13T00:21:59.856Z,3.53
2022-10-13T00:24:29.184Z,3.95
2022-10-13T00:26:59.157Z,4.00
2022-10-13T00:29:29.168Z,3.90
2022-10-13T00:31:58.291Z,4.10
2022-10-13T00:34:27.929Z,4.20
2022-10-13T00:36:57.734Z,4.55
2022-10-13T00:39:27.397Z,4.80
2022-10-13T00:41:57.448Z,4.00
2022-10-13T00:45:02.697Z,4.00
2022-10-13T00:47:41.624Z,4.72
2022-10-13T00:50:20.048Z,4.07
2022-10-13T00:52:53.001Z,3.47
2022-10-13T00:55:26.025Z,3.67
2022-10-13T00:57:56.527Z,3.30
2022-10-13T01:00:32.150Z,3.50
2022-10-13T01:03:00.830Z,3.45
2022-10-13T01:05:30.243Z,3.50
2022-10-13T01:08:00.141Z,4.07
2022-10-13T01:10:38.719Z,4.13
2022-10-13T01:16:52.170Z,3.00
2022-10-13T01:19:38.578Z,3.00
2022-10-13T01:22:20.243Z,3.17
2022-10-13T01:25:01.080Z,3.10
2022-10-13T01:27:28.676Z,4.03
2022-10-13T01:30:05.656Z,4.38
2022-10-13T01:32:57.078Z,4.85
2022-10-13T01:35:48.902Z,4.23
2022-10-13T01:38:27.582Z,4.57
2022-10-13T01:41:18.108Z,4.05
2022-10-13T01:44:01.999Z,3.90
2022-10-13T01:46:38.819Z,4.20
2022-10-13T01:49:13.511Z,4.87
2022-10-13T01:54:24.215Z,5.00
2022-10-13T01:56:53.618Z,4.75
2022-10-13T01:59:22.609Z,4.45
2022-10-13T02:02:15.142Z,3.97
2022-10-13T02:05:01.822Z,3.10
2022-10-13T02:07:39.761Z,2.97
2022-10-13T02:10:32.674Z,2.67
2022-10-13T02:13:04.147Z,2.88
2022-10-13T02:15:36.885Z,3.70
2022-10-13T02:18:14.282Z,2.25
2022-10-13T02:20:42.720Z,2.30
2022-10-13T02:23:16.548Z,2.63
2022-10-13T02:25:45.524Z,3.10
2022-10-13T02:28:15.389Z,4.00
2022-10-13T02:30:44.368Z,5.60
2022-10-13T02:33:12.851Z,5.07
2022-10-13T02:35:41.754Z,5.05
2022-10-13T02:38:10.191Z,4.85
2022-10-13T02:40:38.086Z,4.70
2022-10-13T02:43:05.844Z,5.13
2022-10-13T02:45:33.493Z,4.80
2022-10-13T02:48:01.064Z,4.03
2022-10-13T02:50:29.003Z,4.18
2022-10-13T02:52:57.411Z,4.20
2022-10-13T02:55:25.260Z,4.15
2022-10-13T02:57:57.112Z,4.07
2022-10-13T03:00:25.181Z,2.97
2022-10-13T03:02:52.762Z,2.97
2022-10-13T03:05:21.710Z,2.67
2022-10-13T03:07:50.012Z,2.75
2022-10-13T03:10:17.749Z,3.08
2022-10-13T03:12:45.310Z,2.72
2022-10-13T03:15:13.222Z,2.58
2022-10-13T03:17:41.190Z,2.70
2022-10-13T03:20:09.970Z,2.97
2022-10-13T03:22:37.678Z,3.95
2022-10-13T03:25:06.077Z,3.10
2022-10-13T03:27:33.730Z,3.50
2022-10-13T03:30:01.542Z,3.30
2022-10-13T03:32:31.289Z,3.50
2022-10-13T03:34:58.946Z,3.30
2022-10-13T03:37:29.481Z,3.60
2022-10-13T03:39:57.117Z,3.92
2022-10-13T03:42:24.752Z,3.60
2022-10-13T03:44:56.137Z,4.07
2022-10-13T03:47:24.296Z,3.72
2022-10-13T03:49:55.235Z,3.80
2022-10-13T03:52:23.494Z,2.78
2022-10-13T03:54:51.205Z,2.40
2022-10-13T03:57:18.802Z,2.33
2022-10-13T03:59:46.375Z,2.35
2022-10-13T04:02:14.083Z,2.17
2022-10-13T04:04:41.831Z,1.90
2022-10-13T04:07:09.460Z,1.70
2022-10-13T04:09:37.141Z,2.22
2022-10-13T04:12:05.031Z,2.38
2022-10-13T04:14:32.727Z,2.45
2022-10-13T04:17:08.945Z,2.28
2022-10-13T04:19:36.750Z,2.10
2022-10-13T04:22:06.429Z,2.55
2022-10-13T04:24:34.295Z,2.10
2022-10-13T04:27:02.156Z,2.47
2022-10-13T04:29:29.803Z,2.30
2022-10-13T04:31:59.724Z,2.13
2022-10-13T04:34:27.296Z,2.20
2022-10-13T04:36:55.540Z,2.42
2022-10-13T04:39:24.286Z,2.95
2022-10-13T04:41:51.888Z,3.70
2022-10-13T04:44:19.612Z,3.80
2022-10-13T04:46:47.151Z,3.40
2022-10-13T04:49:15.507Z,3.95
2022-10-13T04:51:43.550Z,3.22
2022-10-13T04:54:11.221Z,2.95
2022-10-13T04:56:39.009Z,2.57
2022-10-13T04:59:06.756Z,2.80
2022-10-13T05:01:36.118Z,3.40
2022-10-13T05:04:07.660Z,2.88
2022-10-13T05:06:58.897Z,2.63
2022-10-13T05:09:28.594Z,2.33
2022-10-13T05:11:56.799Z,2.60
2022-10-13T05:14:24.948Z,2.63
2022-10-13T05:16:52.792Z,2.60
2022-10-13T05:19:20.713Z,2.78
2022-10-13T05:21:50.587Z,2.30
2022-10-13T05:24:21.394Z,2.50
2022-10-13T05:26:52.004Z,2.78
2022-10-13T05:29:20.021Z,2.38
2022-10-13T05:31:57.413Z,2.80
2022-10-13T05:34:26.681Z,2.47
2022-10-13T05:48:43.403Z,1.90
2022-10-13T05:51:16.369Z,2.00
2022-10-13T05:53:52.002Z,2.33
2022-10-13T05:56:27.404Z,2.30
2022-10-13T05:59:00.756Z,3.30
2022-10-13T06:01:31.834Z,4.47
2022-10-13T06:04:04.565Z,5.32
2022-10-13T06:06:33.025Z,4.72
2022-10-13T06:09:01.501Z,4.00
2022-10-13T06:11:29.104Z,3.75
2022-10-13T06:13:56.587Z,4.17
2022-10-13T06:16:24.130Z,3.88
2022-10-13T06:18:51.604Z,3.70
2022-10-13T06:21:19.256Z,3.42
2022-10-13T06:23:47.079Z,3.53
2022-10-13T06:26:14.695Z,3.43
2022-10-13T06:28:46.285Z,3.33
2022-10-13T06:31:16.957Z,2.88
2022-10-13T06:33:44.982Z,2.80
2022-10-13T06:36:12.569Z,2.42
2022-10-13T06:38:40.215Z,2.40
2022-10-13T06:41:07.975Z,2.72
2022-10-13T06:43:40.445Z,2.17
2022-10-13T06:46:12.005Z,1.60
2022-10-13T06:48:39.911Z,1.60
2022-10-13T06:51:10.545Z,1.47
2022-10-13T06:53:38.345Z,1.80
2022-10-13T06:56:07.399Z,1.67
2022-10-13T06:58:36.163Z,2.10
2022-10-13T07:01:04.543Z,2.30
2022-10-13T07:03:32.192Z,3.10
2022-10-13T07:06:04.614Z,3.20
2022-10-13T07:08:33.069Z,3.30
2022-10-13T07:11:08.707Z,3.55
2022-10-13T07:13:43.588Z,3.47
2022-10-13T07:16:15.173Z,3.07
2022-10-13T07:18:42.880Z,3.10
2022-10-13T07:21:11.957Z,3.42
2022-10-13T07:23:39.799Z,3.78
2022-10-13T07:26:09.285Z,3.78
2022-10-13T07:28:37.549Z,3.70
2022-10-13T07:31:14.279Z,3.67
2022-10-13T07:33:44.111Z,3.60
2022-10-13T07:36:12.260Z,3.60
2022-10-13T07:38:40.693Z,3.03
2022-10-13T07:41:10.236Z,2.80
2022-10-13T07:43:37.894Z,2.47
2022-10-13T07:46:06.809Z,2.42
2022-10-13T07:48:35.659Z,2.42
2022-10-13T07:51:08.509Z,2.40
2022-10-13T07:53:36.371Z,2.80
2022-10-13T07:56:06.560Z,2.13
2022-10-13T07:58:37.493Z,2.33
2022-10-13T08:01:05.344Z,2.90
2022-10-13T08:03:41.851Z,3.05
2022-10-13T08:06:17.483Z,3.37
2022-10-13T08:08:45.310Z,4.00
2022-10-13T08:11:18.344Z,3.75
2022-10-13T08:13:52.210Z,2.80
2022-10-13T08:16:22.840Z,2.65
2022-10-13T08:18:50.802Z,2.23
2022-10-13T08:24:11.145Z,1.92
2022-10-13T08:26:39.273Z,2.10
2022-10-13T08:29:21.211Z,3.83
2022-10-13T08:34:23.670Z,4.07
2022-10-13T08:36:54.634Z,4.32
2022-10-13T08:39:24.417Z,4.07
2022-10-13T08:41:53.230Z,3.65
2022-10-13T08:47:31.635Z,3.72
2022-10-13T08:50:03.856Z,2.65
2022-10-13T08:53:14.949Z,3.40
2022-10-13T08:55:53.074Z,2.75
2022-10-13T08:58:25.000Z,2.10
2022-10-13T09:01:17.788Z,1.60
2022-10-13T09:03:55.292Z,2.20
2022-10-13T09:06:31.920Z,1.90
2022-10-13T09:09:01.859Z,2.25
2022-10-13T09:11:41.393Z,2.30
2022-10-13T09:14:12.341Z,2.30
2022-10-13T09:16:42.742Z,2.30
2022-10-13T09:19:36.465Z,2.40
2022-10-13T09:22:23.928Z,2.15
2022-10-13T09:25:06.932Z,2.27
2022-10-13T09:27:52.820Z,2.75
2022-10-13T09:30:40.803Z,2.40
2022-10-13T09:33:09.033Z,2.58
2022-10-13T09:35:40.559Z,2.53
2022-10-13T09:38:16.876Z,2.37
2022-10-13T09:41:16.608Z,2.35
2022-10-13T09:43:44.118Z,2.85
2022-10-13T09:46:26.821Z,2.80
2022-10-13T09:48:58.024Z,3.00
2022-10-13T09:51:45.122Z,3.33
2022-10-13T09:54:45.289Z,3.20
2022-10-13T09:57:19.920Z,3.85
2022-10-13T09:59:50.022Z,3.50
2022-10-13T10:02:33.208Z,3.67
2022-10-13T10:05:24.840Z,2.93
2022-10-13T10:08:06.772Z,3.08
2022-10-13T10:10:37.109Z,2.20
2022-10-13T10:13:12.199Z,1.80
2022-10-13T10:16:04.660Z,2.10
2022-10-13T10:18:42.020Z,2.17
2022-10-13T10:21:34.828Z,2.17
2022-10-13T10:24:16.541Z,2.25
2022-10-13T10:27:11.722Z,2.13
2022-10-13T10:30:02.070Z,2.05
2022-10-13T10:33:03.142Z,2.67
2022-10-13T10:35:52.491Z,1.90
2022-10-13T10:38:47.093Z,1.83
2022-10-13T10:41:44.967Z,2.10
2022-10-13T10:44:21.444Z,2.58
2022-10-13T10:46:50.961Z,1.97
2022-10-13T10:49:27.638Z,1.13
2022-10-13T10:51:55.381Z,1.48
2022-10-13T10:54:27.177Z,1.52
2022-10-13T10:57:03.890Z,1.02
2022-10-13T10:59:50.452Z,1.20
2022-10-13T11:02:33.019Z,1.20
2022-10-13T11:05:05.422Z,1.05
2022-10-13T11:07:34.019Z,1.10
2022-10-13T11:10:04.671Z,1.10
2022-10-13T11:12:53.408Z,1.00
2022-10-13T11:15:23.756Z,1.30
2022-10-13T11:17:52.295Z,1.10
2022-10-13T11:20:22.693Z,1.15
2022-10-13T11:22:59.427Z,1.42
2022-10-13T11:25:48.927Z,1.20
2022-10-13T11:28:22.902Z,1.30
2022-10-13T11:30:55.539Z,1.17
2022-10-13T11:33:38.550Z,0.93
2022-10-13T11:36:37.084Z,1.10
2022-10-13T11:42:21.749Z,1.17
2022-10-13T11:44:52.305Z,1.05
2022-10-13T11:47:48.193Z,0.90
2022-10-13T11:50:38.617Z,1.10
2022-10-13T11:53:18.768Z,0.93
2022-10-13T11:55:55.276Z,1.17
2022-10-13T11:58:27.264Z,1.25
2022-10-13T12:01:01.890Z,1.02
2022-10-13T12:03:35.636Z,0.75
2022-10-13T12:06:07.898Z,1.20
2022-10-13T12:08:36.841Z,1.27
2022-10-13T12:11:07.744Z,0.98
2022-10-13T12:13:36.409Z,0.85
2022-10-13T12:16:08.488Z,1.08
2022-10-13T12:18:39.164Z,1.40
2022-10-13T12:21:21.087Z,1.10
2022-10-13T12:23:50.779Z,1.30
2022-10-13T12:26:25.415Z,1.25
2022-10-13T12:28:56.771Z,1.10
2022-10-13T12:31:27.829Z,1.30
2022-10-13T12:34:04.748Z,1.00
2022-10-13T12:36:34.701Z,1.20
2022-10-13T12:39:06.435Z,0.88
2022-10-13T12:41:36.481Z,1.23
2022-10-13T12:44:06.775Z,1.03
2022-10-13T12:46:49.538Z,0.65
2022-10-13T12:49:22.576Z,0.82
2022-10-13T12:52:15.429Z,0.70
2022-10-13T12:54:52.452Z,0.80
2022-10-13T12:57:35.188Z,1.03
2022-10-13T13:00:24.381Z,0.70
2022-10-13T13:03:05.078Z,1.05
2022-10-13T13:05:50.745Z,1.00
2022-10-13T13:08:29.764Z,0.60
2022-10-13T13:10:57.961Z,0.73
2022-10-13T13:13:25.896Z,1.10
2022-10-13T13:15:53.761Z,1.25
2022-10-13T13:18:26.967Z,1.08
2022-10-13T13:20:54.874Z,0.93
2022-10-13T13:23:23.659Z,0.80
2022-10-13T13:26:11.441Z,1.30
2022-10-13T13:28:48.930Z,1.00
2022-10-13T13:31:18.508Z,1.10
2022-10-13T13:33:47.371Z,1.25
2022-10-13T13:36:25.574Z,0.90
2022-10-13T13:38:54.300Z,1.17
2022-10-13T13:41:22.473Z,0.75
2022-10-13T13:43:50.208Z,1.13
2022-10-13T13:46:26.039Z,1.23
2022-10-13T13:48:54.424Z,0.70
2022-10-13T13:51:22.034Z,0.70
2022-10-13T13:53:49.647Z,0.95
2022-10-13T13:56:20.751Z,0.65
2022-10-13T13:58:48.490Z,1.08
2022-10-13T14:01:16.262Z,0.60
2022-10-13T14:03:44.017Z,0.65
2022-10-13T14:06:20.310Z,0.80
2022-10-13T14:08:47.883Z,1.33
2022-10-13T14:11:15.519Z,1.70
2022-10-13T14:13:43.115Z,1.40
2022-10-13T14:16:16.848Z,1.00
2022-10-13T14:18:44.414Z,1.05
2022-10-13T14:21:11.912Z,0.82
2022-10-13T14:23:40.467Z,0.90
2022-10-13T14:26:09.658Z,0.70
2022-10-13T14:28:37.262Z,1.00
2022-10-13T14:31:06.540Z,1.00
2022-10-13T14:33:36.055Z,1.20
2022-10-13T14:36:07.709Z,0.90
2022-10-13T14:38:35.390Z,0.80
2022-10-13T14:41:05.027Z,1.70
2022-10-13T14:43:33.212Z,0.52
2022-10-13T14:46:06.688Z,0.95
2022-10-13T14:48:35.949Z,0.98
2022-10-13T14:51:05.128Z,0.97
2022-10-13T14:53:34.806Z,0.93
2022-10-13T14:56:02.787Z,0.73
2022-10-13T14:58:31.618Z,0.70
2022-10-13T15:00:59.121Z,1.00
2022-10-13T15:03:28.217Z,1.00
2022-10-13T15:05:55.749Z,0.80
2022-10-13T15:08:24.003Z,0.70
2022-10-13T15:11:03.960Z,0.85
2022-10-13T15:13:31.593Z,1.10
2022-10-13T15:16:04.820Z,1.23
2022-10-13T15:18:35.270Z,1.67
2022-10-13T15:21:02.871Z,1.08
2022-10-13T15:23:30.446Z,1.00
2022-10-13T15:26:00.775Z,1.00
2022-10-13T15:28:31.390Z,1.03
2022-10-13T15:30:59.009Z,1.00
2022-10-13T15:33:28.556Z,0.80
2022-10-13T15:35:57.589Z,0.80
2022-10-13T15:38:25.662Z,0.75
2022-10-13T15:40:53.357Z,0.60
2022-10-13T15:43:21.039Z,0.90
2022-10-13T15:46:05.208Z,1.70
2022-10-13T15:48:34.062Z,1.92
2022-10-13T15:51:02.178Z,0.90
2022-10-13T15:53:30.026Z,1.27
2022-10-13T15:55:57.614Z,2.00
2022-10-13T15:58:25.138Z,4.43
2022-10-13T16:00:52.671Z,4.25
2022-10-13T16:03:20.379Z,1.67
2022-10-13T16:05:47.988Z,1.43
2022-10-13T16:08:15.546Z,1.88
2022-10-13T16:10:44.332Z,0.95
2022-10-13T16:13:15.007Z,1.10
2022-10-13T16:15:43.088Z,1.10
2022-10-13T16:18:10.661Z,0.83
2022-10-13T16:20:39.465Z,1.63
2022-10-13T16:23:06.959Z,1.10
2022-10-13T16:25:38.487Z,0.70
2022-10-13T16:28:06.104Z,1.70
2022-10-13T16:30:36.921Z,1.13
2022-10-13T16:33:04.474Z,1.10
2022-10-13T16:35:32.062Z,1.50
2022-10-13T16:38:00.266Z,0.70
2022-10-13T16:40:27.825Z,1.80
2022-10-13T16:42:56.691Z,1.00
2022-10-13T16:45:41.195Z,1.30
2022-10-13T16:48:11.822Z,0.95
2022-10-13T16:50:39.302Z,1.20
2022-10-13T16:53:06.814Z,0.90
2022-10-13T16:55:34.835Z,0.90
2022-10-13T16:58:02.457Z,0.80
2022-10-13T17:00:30.054Z,1.02
2022-10-13T17:02:57.815Z,1.10
2022-10-13T17:05:25.720Z,0.80
2022-10-13T17:07:54.220Z,1.03
2022-10-13T17:10:21.844Z,0.82
2022-10-13T17:12:50.941Z,0.93
2022-10-13T17:15:18.772Z,1.02
2022-10-13T17:17:46.484Z,0.90
2022-10-13T17:20:14.073Z,0.83
2022-10-13T17:22:41.873Z,0.98
2022-10-13T17:25:09.812Z,1.30
2022-10-13T17:27:37.696Z,0.98
2022-10-13T17:30:05.678Z,1.10
2022-10-13T17:32:38.792Z,1.10
2022-10-13T17:35:06.938Z,0.88
2022-10-13T17:37:34.523Z,1.20
2022-10-13T17:40:02.292Z,1.55
2022-10-13T17:42:29.822Z,1.08
2022-10-13T17:44:57.340Z,0.97
2022-10-13T17:47:24.822Z,1.23
2022-10-13T17:49:52.354Z,1.60
2022-10-13T17:52:21.254Z,1.55
2022-10-13T17:54:50.265Z,1.50
2022-10-13T17:57:18.041Z,1.67
2022-10-13T17:59:45.889Z,1.35
2022-10-13T18:02:13.753Z,2.17
2022-10-13T18:04:41.765Z,1.40
2022-10-13T18:07:09.260Z,1.17
2022-10-13T18:09:36.826Z,1.37
2022-10-13T18:12:04.585Z,1.77
2022-10-13T18:14:32.086Z,1.33
2022-10-13T18:16:59.626Z,2.17
2022-10-13T18:19:27.349Z,1.30
2022-10-13T18:21:54.923Z,1.00
2022-10-13T18:24:24.043Z,1.88
2022-10-13T18:26:51.591Z,1.55
2022-10-13T18:29:19.148Z,2.08
2022-10-13T18:31:46.708Z,1.40
2022-10-13T18:34:17.091Z,1.93
2022-10-13T18:36:50.683Z,1.45
2022-10-13T18:39:25.160Z,2.00
2022-10-13T18:41:54.511Z,1.73
2022-10-13T18:44:23.511Z,1.88
2022-10-13T18:46:53.919Z,1.60
2022-10-13T18:49:23.974Z,1.60
2022-10-13T18:51:52.103Z,1.50
2022-10-13T18:54:19.701Z,1.50
2022-10-13T18:56:47.250Z,1.00
2022-10-13T18:59:14.780Z,1.30
2022-10-13T19:01:42.951Z,1.52
2022-10-13T19:04:12.843Z,1.50
2022-10-13T19:06:40.911Z,1.58
2022-10-13T19:09:11.243Z,1.27
2022-10-13T19:11:39.618Z,1.13
2022-10-13T19:14:11.432Z,1.58
2022-10-13T19:16:41.266Z,1.20
2022-10-13T19:19:09.373Z,1.75
2022-10-13T19:21:38.364Z,1.40
2022-10-13T19:24:07.390Z,1.20
2022-10-13T19:26:35.850Z,1.10
2022-10-13T19:29:12.383Z,1.10
2022-10-13T19:31:41.602Z,1.15
2022-10-13T19:34:10.652Z,1.10
2022-10-13T19:36:44.447Z,0.97
2022-10-13T19:39:18.393Z,0.85
2022-10-13T19:41:47.436Z,1.10
2022-10-13T19:44:17.110Z,1.40
2022-10-13T19:46:46.441Z,1.40
2022-10-13T19:49:16.162Z,1.83
2022-10-13T19:51:47.976Z,2.10
2022-10-13T19:54:17.069Z,2.90
2022-10-13T19:56:47.573Z,4.10
2022-10-13T19:59:15.979Z,3.22
2022-10-13T20:01:43.707Z,2.00
2022-10-13T20:04:15.600Z,2.13
2022-10-13T20:06:44.857Z,2.10
2022-10-13T20:09:12.667Z,2.70
2022-10-13T20:11:40.496Z,2.70
2022-10-13T20:14:08.088Z,2.37
2022-10-13T20:16:37.868Z,2.30
2022-10-13T20:19:06.968Z,2.30
2022-10-13T20:21:34.554Z,2.38
2022-10-13T20:24:02.059Z,2.55
2022-10-13T20:26:29.630Z,2.93
2022-10-13T20:28:58.327Z,3.35
2022-10-13T20:31:26.997Z,3.10
2022-10-13T20:33:56.556Z,3.30
2022-10-13T20:36:25.828Z,3.58
2022-10-13T20:38:53.991Z,3.17
2022-10-13T20:41:23.074Z,3.83
2022-10-13T20:43:52.140Z,3.80
2022-10-13T20:46:21.725Z,3.33
2022-10-13T20:49:10.885Z,3.33
2022-10-13T20:51:37.840Z,3.27
2022-10-13T20:54:05.830Z,3.50
2022-10-13T20:56:33.669Z,3.15
2022-10-13T20:59:07.752Z,3.42
2022-10-13T21:01:36.493Z,3.83
2022-10-13T21:04:04.731Z,5.60
2022-10-13T21:06:32.345Z,4.30
2022-10-13T21:09:01.006Z,7.00
2022-10-13T21:11:28.539Z,6.22
2022-10-13T21:13:56.064Z,5.88
2022-10-13T21:16:29.008Z,5.97
2022-10-13T21:18:57.955Z,7.15
2022-10-13T21:21:31.776Z,8.40
2022-10-13T21:24:01.240Z,8.40
2022-10-13T21:26:30.294Z,10.50
2022-10-13T21:28:58.757Z,17.80
2022-10-13T21:31:27.627Z,9.57
2022-10-13T21:33:55.745Z,5.75
2022-10-13T21:36:24.631Z,4.35
2022-10-13T21:38:55.270Z,6.90
2022-10-13T21:41:23.570Z,4.70
2022-10-13T21:43:52.033Z,5.75
2022-10-13T21:46:31.655Z,4.60
2022-10-13T21:49:01.064Z,7.60
2022-10-13T21:51:35.532Z,5.20
2022-10-13T21:54:09.230Z,8.77
2022-10-13T21:56:37.538Z,7.63
2022-10-13T21:59:05.968Z,4.70
2022-10-13T22:01:34.002Z,4.22
2022-10-13T22:04:03.224Z,3.42
2022-10-13T22:06:32.355Z,3.97
2022-10-13T22:09:01.961Z,3.10
2022-10-13T22:11:31.940Z,2.83
2022-10-13T22:14:05.371Z,3.10
2022-10-13T22:16:37.070Z,2.20
2022-10-13T22:19:04.943Z,2.60
2022-10-13T22:21:37.468Z,2.20
2022-10-13T22:24:07.308Z,2.08
2022-10-13T22:26:36.934Z,2.38
2022-10-13T22:29:06.077Z,2.20
2022-10-13T22:31:34.577Z,2.97
2022-10-13T22:34:09.423Z,2.58
2022-10-13T22:36:41.048Z,2.35
2022-10-13T22:39:11.909Z,2.50
2022-10-13T22:41:39.472Z,2.50
2022-10-13T22:44:07.038Z,3.27
2022-10-13T22:46:36.533Z,2.65
2022-10-13T22:49:05.088Z,2.45
2022-10-13T22:51:34.775Z,2.30
2022-10-13T22:54:03.608Z,2.70
2022-10-13T22:56:33.460Z,2.50
2022-10-13T22:59:11.290Z,3.20
2022-10-13T23:01:38.902Z,3.13
2022-10-13T23:04:06.664Z,2.50
2022-10-13T23:06:36.014Z,2.75
2022-10-13T23:09:10.418Z,2.50
2022-10-13T23:11:38.532Z,2.78
2022-10-13T23:14:06.926Z,2.00
2022-10-13T23:16:34.598Z,2.47
2022-10-13T23:19:02.218Z,1.90
2022-10-13T23:21:30.641Z,2.23
2022-10-13T23:24:03.952Z,2.40
2022-10-13T23:26:32.806Z,2.20
2022-10-13T23:29:00.848Z,2.28
2022-10-13T23:31:28.801Z,2.55
2022-10-13T23:33:56.725Z,2.90
2022-10-13T23:36:28.606Z,2.50
2022-10-13T23:38:59.140Z,2.40
2022-10-13T23:41:27.757Z,2.47
2022-10-13T23:43:55.354Z,2.00
2022-10-13T23:46:23.354Z,2.20
2022-10-13T23:48:51.416Z,2.33
2022-10-13T23:51:22.083Z,2.10
2022-10-13T23:53:49.640Z,1.80
2022-10-13T23:56:18.442Z,2.45
2022-10-13T23:58:46.329Z,2.13
